createdAt,value
2022-12-11T00:00:48.143Z,0.54
2022-12-11T00:03:51.210Z,0.52
2022-12-11T00:06:54.178Z,0.52
2022-12-11T00:09:59.137Z,0.58
2022-12-11T00:13:07.405Z,0.61
2022-12-11T00:16:10.880Z,0.66
2022-12-11T00:19:13.884Z,0.69
2022-12-11T00:22:16.735Z,0.70
2022-12-11T00:25:22.506Z,0.76
2022-12-11T00:28:25.306Z,0.80
2022-12-11T00:31:28.207Z,0.82
2022-12-11T00:34:31.099Z,0.87
2022-12-11T00:37:34.060Z,0.91
2022-12-11T00:40:37.472Z,0.96
2022-12-11T00:43:40.470Z,0.93
2022-12-11T00:46:43.336Z,0.94
2022-12-11T00:49:49.728Z,0.97
2022-12-11T00:52:53.273Z,1.03
2022-12-11T00:55:56.243Z,1.03
2022-12-11T00:59:05.076Z,0.99
2022-12-11T01:02:10.712Z,1.06
2022-12-11T01:05:13.710Z,1.08
2022-12-11T01:08:16.717Z,1.15
2022-12-11T01:11:21.231Z,1.13
2022-12-11T01:14:24.043Z,1.11
2022-12-11T01:17:26.978Z,1.18
2022-12-11T01:20:29.847Z,1.14
2022-12-11T01:23:32.784Z,1.13
2022-12-11T01:26:36.301Z,1.17
2022-12-11T01:29:41.221Z,1.21
2022-12-11T01:32:44.036Z,1.19
2022-12-11T01:35:46.889Z,1.22
2022-12-11T01:38:54.651Z,1.26
2022-12-11T01:42:01.727Z,1.32
2022-12-11T01:45:26.610Z,1.28
2022-12-11T01:48:35.693Z,1.30
2022-12-11T01:52:11.992Z,1.26
2022-12-11T01:55:15.119Z,1.26
2022-12-11T01:58:18.903Z,1.35
2022-12-11T02:01:56.007Z,1.33
2022-12-11T02:04:58.770Z,1.36
2022-12-11T02:08:05.217Z,1.34
2022-12-11T02:11:21.443Z,1.39
2022-12-11T02:14:48.220Z,1.41
2022-12-11T02:18:21.398Z,1.38
2022-12-11T02:21:28.171Z,1.38
2022-12-11T02:24:59.759Z,1.40
2022-12-11T02:28:11.492Z,1.38
2022-12-11T02:31:18.499Z,1.41
2022-12-11T02:34:30.933Z,1.45
2022-12-11T02:37:35.920Z,1.44
2022-12-11T02:40:44.232Z,1.44
2022-12-11T02:43:48.586Z,1.44
2022-12-11T02:46:52.463Z,1.41
2022-12-11T02:49:56.496Z,1.44
2022-12-11T02:52:59.594Z,1.45
2022-12-11T02:56:14.497Z,1.42
2022-12-11T02:59:42.168Z,1.43
2022-12-11T03:02:45.543Z,1.45
2022-12-11T03:05:49.087Z,1.44
2022-12-11T03:08:52.395Z,1.42
2022-12-11T03:11:55.305Z,1.44
2022-12-11T03:15:00.032Z,1.46
2022-12-11T03:18:22.921Z,1.47
2022-12-11T03:21:35.693Z,1.46
2022-12-11T03:24:48.208Z,1.47
2022-12-11T03:28:19.745Z,1.47
2022-12-11T03:31:28.129Z,1.47
2022-12-11T03:34:40.936Z,1.44
2022-12-11T03:37:45.010Z,1.47
2022-12-11T03:40:50.751Z,1.49
2022-12-11T03:43:58.560Z,1.45
2022-12-11T03:47:02.913Z,1.41
2022-12-11T03:50:08.236Z,1.41
2022-12-11T03:53:12.177Z,1.44
2022-12-11T03:56:16.294Z,1.48
2022-12-11T03:59:30.029Z,1.49
2022-12-11T04:02:32.851Z,1.50
2022-12-11T04:05:36.130Z,1.50
2022-12-11T04:08:39.012Z,1.48
2022-12-11T04:11:43.351Z,1.47
2022-12-11T04:15:04.370Z,1.50
2022-12-11T04:18:26.613Z,1.52
2022-12-11T04:21:47.797Z,1.54
2022-12-11T04:24:51.183Z,1.54
2022-12-11T04:27:53.953Z,1.55
2022-12-11T04:30:56.931Z,1.54
2022-12-11T04:33:59.817Z,1.53
2022-12-11T04:37:02.835Z,1.55
2022-12-11T04:40:10.030Z,1.55
2022-12-11T04:43:12.807Z,1.53
2022-12-11T04:46:21.465Z,1.53
2022-12-11T04:49:24.393Z,1.58
2022-12-11T04:52:27.228Z,1.55
2022-12-11T04:55:31.195Z,1.58
2022-12-11T04:58:35.949Z,1.57
2022-12-11T05:01:38.847Z,1.56
2022-12-11T05:04:42.345Z,1.54
2022-12-11T05:07:45.236Z,1.58
2022-12-11T05:11:02.782Z,1.54
2022-12-11T05:14:05.839Z,1.51
2022-12-11T05:17:08.710Z,1.53
2022-12-11T05:20:11.864Z,1.50
2022-12-11T05:23:14.690Z,1.52
2022-12-11T05:26:21.497Z,1.52
2022-12-11T05:29:24.517Z,1.54
2022-12-11T05:32:27.441Z,1.54
2022-12-11T05:35:30.229Z,1.53
2022-12-11T05:38:33.327Z,1.55
2022-12-11T05:41:36.149Z,1.56
2022-12-11T05:44:38.907Z,1.56
2022-12-11T05:47:41.731Z,1.55
2022-12-11T05:50:44.549Z,1.59
2022-12-11T05:53:48.878Z,1.58
2022-12-11T05:56:51.753Z,1.54
2022-12-11T05:59:54.659Z,1.52
2022-12-11T06:02:57.585Z,1.49
2022-12-11T06:06:04.768Z,1.48
2022-12-11T06:09:07.880Z,1.49
2022-12-11T06:12:11.333Z,1.47
2022-12-11T06:15:14.077Z,1.48
2022-12-11T06:18:17.004Z,1.48
2022-12-11T06:21:25.278Z,1.47
2022-12-11T06:24:28.131Z,1.44
2022-12-11T06:27:31.344Z,1.43
2022-12-11T06:30:39.266Z,1.43
2022-12-11T06:33:43.093Z,1.41
2022-12-11T06:36:45.897Z,1.44
2022-12-11T06:39:48.676Z,1.48
2022-12-11T06:42:51.561Z,1.45
2022-12-11T06:45:56.868Z,1.46
2022-12-11T06:49:03.621Z,1.44
2022-12-11T06:52:06.652Z,1.43
2022-12-11T06:55:10.124Z,1.43
2022-12-11T06:58:13.153Z,1.42
2022-12-11T07:01:18.989Z,1.43
2022-12-11T07:04:25.174Z,1.41
2022-12-11T07:07:28.021Z,1.40
2022-12-11T07:10:30.823Z,1.40
2022-12-11T07:13:34.044Z,1.34
2022-12-11T07:16:37.081Z,1.31
2022-12-11T07:19:40.968Z,1.25
2022-12-11T07:22:46.656Z,1.25
2022-12-11T07:25:52.920Z,1.25
2022-12-11T07:28:59.331Z,1.21
2022-12-11T07:32:05.934Z,1.26
2022-12-11T07:35:09.655Z,1.24
2022-12-11T07:38:12.798Z,1.23
2022-12-11T07:41:16.534Z,1.23
2022-12-11T07:44:19.670Z,1.22
2022-12-11T07:47:22.418Z,1.21
2022-12-11T07:50:27.489Z,1.20
2022-12-11T07:53:30.559Z,1.18
2022-12-11T07:56:34.851Z,1.19
2022-12-11T07:59:37.996Z,1.20
2022-12-11T08:02:40.942Z,1.19
2022-12-11T08:05:52.364Z,1.18
2022-12-11T08:08:56.046Z,1.19
2022-12-11T08:11:58.763Z,1.19
2022-12-11T08:15:01.686Z,1.22
2022-12-11T08:18:05.288Z,1.23
2022-12-11T08:21:19.165Z,1.24
2022-12-11T08:24:22.185Z,1.28
2022-12-11T08:27:25.177Z,1.29
2022-12-11T08:30:28.407Z,1.31
2022-12-11T08:33:31.323Z,1.30
2022-12-11T08:36:34.424Z,1.30
2022-12-11T08:39:39.362Z,1.34
2022-12-11T08:42:52.792Z,1.36
2022-12-11T08:46:03.882Z,1.37
2022-12-11T08:49:12.440Z,1.38
2022-12-11T08:52:16.850Z,1.43
2022-12-11T08:55:20.574Z,1.43
2022-12-11T08:58:27.361Z,1.39
2022-12-11T09:01:30.634Z,1.39
2022-12-11T09:04:33.888Z,1.43
2022-12-11T09:07:39.225Z,1.42
2022-12-11T09:10:44.142Z,1.45
2022-12-11T09:13:48.334Z,1.43
2022-12-11T09:16:51.964Z,1.53
2022-12-11T09:19:54.886Z,1.61
2022-12-11T09:22:57.667Z,1.58
2022-12-11T09:26:01.037Z,1.63
2022-12-11T09:29:05.661Z,1.62
2022-12-11T09:32:09.543Z,1.62
2022-12-11T09:35:13.653Z,1.66
2022-12-11T09:38:16.660Z,1.64
2022-12-11T09:41:22.613Z,1.57
2022-12-11T09:44:44.959Z,1.62
2022-12-11T09:47:52.996Z,1.61
2022-12-11T09:50:56.317Z,1.79
2022-12-11T09:54:02.294Z,1.80
2022-12-11T09:57:07.355Z,1.83
2022-12-11T10:00:32.972Z,1.82
2022-12-11T10:04:19.396Z,1.83
2022-12-11T10:07:50.163Z,1.86
2022-12-11T10:11:06.606Z,1.82
2022-12-11T10:14:24.213Z,1.85
2022-12-11T10:17:33.000Z,1.86
2022-12-11T10:20:44.324Z,1.86
2022-12-11T10:24:59.360Z,1.82
2022-12-11T10:33:05.013Z,2.61
2022-12-11T10:44:47.806Z,2.13
2022-12-11T10:48:14.002Z,2.35
2022-12-11T10:51:17.048Z,2.18
2022-12-11T10:54:25.284Z,2.16
2022-12-11T10:57:40.356Z,2.47
2022-12-11T11:00:43.489Z,2.70
2022-12-11T11:03:54.724Z,2.58
2022-12-11T11:07:09.919Z,2.53
2022-12-11T11:10:13.901Z,2.65
2022-12-11T11:13:22.615Z,2.69
2022-12-11T11:16:25.905Z,2.98
2022-12-11T11:19:35.710Z,3.00
2022-12-11T11:22:43.333Z,2.69
2022-12-11T11:26:08.197Z,2.60
2022-12-11T11:29:25.856Z,2.48
2022-12-11T11:32:39.343Z,2.33
2022-12-11T11:35:53.207Z,2.59
2022-12-11T11:39:27.066Z,2.69
2022-12-11T11:42:44.535Z,2.57
2022-12-11T11:45:54.265Z,2.29
2022-12-11T11:49:25.161Z,2.40
2022-12-11T11:52:49.234Z,2.38
2022-12-11T11:56:04.270Z,2.33
2022-12-11T11:59:15.017Z,2.43
2022-12-11T12:02:20.580Z,2.32
2022-12-11T12:05:36.158Z,2.25
2022-12-11T12:09:02.215Z,2.21
2022-12-11T12:12:52.858Z,2.35
2022-12-11T12:16:00.918Z,2.24
2022-12-11T12:19:08.380Z,2.19
2022-12-11T12:22:33.229Z,2.07
2022-12-11T12:26:14.555Z,2.10
2022-12-11T12:29:42.696Z,2.03
2022-12-11T12:32:54.972Z,2.04
2022-12-11T12:36:17.410Z,1.84
2022-12-11T12:39:50.773Z,1.85
2022-12-11T12:43:31.315Z,1.75
2022-12-11T12:46:44.186Z,1.64
2022-12-11T12:49:49.478Z,1.58
2022-12-11T12:52:53.472Z,1.53
2022-12-11T12:55:57.799Z,1.50
2022-12-11T12:59:00.916Z,1.46
2022-12-11T13:02:05.222Z,1.45
2022-12-11T13:05:27.826Z,1.44
2022-12-11T13:08:42.897Z,1.38
2022-12-11T13:11:47.773Z,1.40
2022-12-11T13:14:57.095Z,1.41
2022-12-11T13:18:01.153Z,1.30
2022-12-11T13:21:33.969Z,1.28
2022-12-11T13:24:46.894Z,1.26
2022-12-11T13:27:50.180Z,1.21
2022-12-11T13:31:00.031Z,1.17
2022-12-11T13:34:23.577Z,1.16
2022-12-11T13:37:35.403Z,1.12
2022-12-11T13:40:40.620Z,1.11
2022-12-11T13:43:44.994Z,1.06
2022-12-11T13:46:48.148Z,1.07
2022-12-11T13:49:55.386Z,1.07
2022-12-11T13:53:03.246Z,1.06
2022-12-11T13:56:08.110Z,0.99
2022-12-11T13:59:25.938Z,0.97
2022-12-11T14:02:40.225Z,0.93
2022-12-11T14:05:43.106Z,0.89
2022-12-11T14:08:49.132Z,0.90
2022-12-11T14:11:56.800Z,0.88
2022-12-11T14:15:02.317Z,0.85
2022-12-11T14:18:05.703Z,0.82
2022-12-11T14:21:19.049Z,0.80
2022-12-11T14:24:21.809Z,0.77
2022-12-11T14:27:26.553Z,0.74
2022-12-11T14:30:33.962Z,0.72
2022-12-11T14:33:54.364Z,0.70
2022-12-11T14:36:58.251Z,0.68
2022-12-11T14:40:04.348Z,0.65
2022-12-11T14:43:16.006Z,0.60
2022-12-11T14:46:22.783Z,0.59
2022-12-11T14:49:50.888Z,0.57
2022-12-11T14:53:18.549Z,0.54
2022-12-11T14:56:26.595Z,0.52
2022-12-11T14:59:32.157Z,0.49
2022-12-11T15:02:37.016Z,0.46
2022-12-11T15:05:54.738Z,0.42
2022-12-11T15:08:57.848Z,0.41
2022-12-11T15:12:09.959Z,0.38
2022-12-11T15:15:15.823Z,0.38
2022-12-11T15:18:35.498Z,0.35
2022-12-11T15:21:41.494Z,0.34
2022-12-11T15:24:46.904Z,0.34
2022-12-11T15:27:55.313Z,0.31
2022-12-11T15:31:23.109Z,0.31
2022-12-11T15:34:26.242Z,0.29
2022-12-11T15:37:31.500Z,0.28
2022-12-11T15:40:36.278Z,0.26
2022-12-11T15:43:39.683Z,0.25
2022-12-11T15:46:42.528Z,0.22
2022-12-11T15:49:45.521Z,0.23
2022-12-11T15:52:49.243Z,0.23
2022-12-11T15:56:41.874Z,0.23
2022-12-11T15:59:53.669Z,0.21
2022-12-11T16:02:58.277Z,0.20
2022-12-11T16:06:02.016Z,0.17
2022-12-11T16:09:05.892Z,0.16
2022-12-11T16:12:09.118Z,0.15
2022-12-11T16:15:23.414Z,0.13
2022-12-11T16:18:27.380Z,0.11
2022-12-11T16:21:30.183Z,0.07
2022-12-11T16:24:33.623Z,0.06
2022-12-11T16:27:36.452Z,0.02
2022-12-11T16:30:44.028Z,0.02
2022-12-11T16:34:15.959Z,0.01
2022-12-11T16:37:29.815Z,-0.02
2022-12-11T16:40:45.777Z,-0.05
2022-12-11T16:43:56.519Z,-0.05
2022-12-11T16:47:24.561Z,-0.09
2022-12-11T16:50:40.300Z,-0.09
2022-12-11T16:53:43.407Z,-0.09
2022-12-11T16:56:46.431Z,-0.10
2022-12-11T16:59:49.503Z,-0.10
2022-12-11T17:02:53.237Z,-0.10
2022-12-11T17:05:58.034Z,-0.09
2022-12-11T17:09:01.092Z,-0.11
2022-12-11T17:12:04.774Z,-0.11
2022-12-11T17:15:08.055Z,-0.10
2022-12-11T17:18:11.688Z,-0.12
2022-12-11T17:21:19.953Z,-0.12
2022-12-11T17:24:23.334Z,-0.12
2022-12-11T17:27:26.600Z,-0.12
2022-12-11T17:30:31.614Z,-0.13
2022-12-11T17:33:35.808Z,-0.12
2022-12-11T17:36:39.098Z,-0.12
2022-12-11T17:39:43.183Z,-0.13
2022-12-11T17:42:48.134Z,-0.14
2022-12-11T17:45:55.380Z,-0.15
2022-12-11T17:49:00.463Z,-0.18
2022-12-11T17:52:03.742Z,-0.22
2022-12-11T17:55:08.733Z,-0.23
2022-12-11T17:58:17.580Z,-0.23
2022-12-11T18:01:21.109Z,-0.23
2022-12-11T18:04:24.488Z,-0.27
2022-12-11T18:07:27.730Z,-0.33
2022-12-11T18:10:37.243Z,-0.36
2022-12-11T18:13:43.068Z,-0.39
2022-12-11T18:16:53.715Z,-0.41
2022-12-11T18:19:59.170Z,-0.41
2022-12-11T18:23:05.359Z,-0.43
2022-12-11T18:26:15.817Z,-0.44
2022-12-11T18:29:19.419Z,-0.43
2022-12-11T18:32:22.819Z,-0.44
2022-12-11T18:35:25.830Z,-0.44
2022-12-11T18:38:29.336Z,-0.44
2022-12-11T18:41:33.467Z,-0.45
2022-12-11T18:44:36.531Z,-0.48
2022-12-11T18:47:39.546Z,-0.49
2022-12-11T18:50:49.440Z,-0.50
2022-12-11T18:53:52.842Z,-0.48
2022-12-11T18:56:56.055Z,-0.45
2022-12-11T19:00:03.647Z,-0.44
2022-12-11T19:03:08.564Z,-0.44
2022-12-11T19:06:17.396Z,-0.42
2022-12-11T19:09:20.769Z,-0.39
2022-12-11T19:12:24.171Z,-0.43
2022-12-11T19:15:27.872Z,-0.41
2022-12-11T19:18:30.939Z,-0.42
2022-12-11T19:21:36.040Z,-0.43
2022-12-11T19:24:39.039Z,-0.44
2022-12-11T19:27:42.110Z,-0.45
2022-12-11T19:30:49.452Z,-0.44
2022-12-11T19:33:52.761Z,-0.48
2022-12-11T19:36:56.986Z,-0.48
2022-12-11T19:39:59.854Z,-0.48
2022-12-11T19:43:02.873Z,-0.51
2022-12-11T19:46:08.560Z,-0.50
2022-12-11T19:49:12.411Z,-0.50
2022-12-11T19:52:15.410Z,-0.51
2022-12-11T19:55:19.861Z,-0.51
2022-12-11T19:58:23.259Z,-0.53
2022-12-11T20:01:31.220Z,-0.52
2022-12-11T20:04:34.368Z,-0.53
2022-12-11T20:07:37.496Z,-0.51
2022-12-11T20:10:40.683Z,-0.51
2022-12-11T20:13:50.271Z,-0.53
2022-12-11T20:17:13.981Z,-0.51
2022-12-11T20:20:19.399Z,-0.55
2022-12-11T20:23:25.589Z,-0.62
2022-12-11T20:26:31.022Z,-0.69
2022-12-11T20:29:33.978Z,-0.71
2022-12-11T20:32:37.740Z,-0.74
2022-12-11T20:35:43.332Z,-0.77
2022-12-11T20:38:46.871Z,-0.80
2022-12-11T20:41:50.018Z,-0.87
2022-12-11T20:44:54.615Z,-0.93
2022-12-11T20:47:58.248Z,-1.00
2022-12-11T20:51:07.030Z,-1.05
2022-12-11T20:54:12.734Z,-1.09
2022-12-11T20:57:16.699Z,-1.15
2022-12-11T21:00:20.624Z,-1.16
2022-12-11T21:03:25.181Z,-1.24
2022-12-11T21:06:33.301Z,-1.34
2022-12-11T21:09:42.751Z,-1.41
2022-12-11T21:12:45.688Z,-1.47
2022-12-11T21:15:52.877Z,-1.49
2022-12-11T21:18:59.288Z,-1.51
2022-12-11T21:22:02.482Z,-1.51
2022-12-11T21:25:05.711Z,-1.53
2022-12-11T21:28:08.605Z,-1.58
2022-12-11T21:31:15.509Z,-1.61
2022-12-11T21:34:25.371Z,-1.65
2022-12-11T21:37:28.773Z,-1.66
2022-12-11T21:40:33.306Z,-1.66
2022-12-11T21:43:36.238Z,-1.64
2022-12-11T21:46:39.732Z,-1.65
2022-12-11T21:49:42.850Z,-1.66
2022-12-11T21:52:45.625Z,-1.68
2022-12-11T21:55:48.321Z,-1.67
2022-12-11T21:58:52.611Z,-1.68
2022-12-11T22:01:58.411Z,-1.67
2022-12-11T22:05:01.415Z,-1.68
2022-12-11T22:08:04.212Z,-1.67
2022-12-11T22:11:10.907Z,-1.66
2022-12-11T22:14:17.479Z,-1.65
2022-12-11T22:17:20.377Z,-1.62
2022-12-11T22:20:28.115Z,-1.60
2022-12-11T22:23:30.900Z,-1.60
2022-12-11T22:26:33.608Z,-1.60
2022-12-11T22:29:36.392Z,-1.55
2022-12-11T22:32:39.619Z,-1.52
2022-12-11T22:35:42.879Z,-1.51
2022-12-11T22:38:51.869Z,-1.45
2022-12-11T22:41:56.217Z,-1.41
2022-12-11T22:44:59.597Z,-1.40
2022-12-11T22:48:04.764Z,-1.37
2022-12-11T22:51:07.804Z,-1.35
2022-12-11T22:54:10.718Z,-1.33
2022-12-11T22:57:14.548Z,-1.37
2022-12-11T23:00:17.639Z,-1.36
2022-12-11T23:03:20.549Z,-1.38
2022-12-11T23:06:25.118Z,-1.37
2022-12-11T23:09:27.855Z,-1.41
2022-12-11T23:12:30.997Z,-1.42
2022-12-11T23:15:33.723Z,-1.39
2022-12-11T23:18:36.756Z,-1.42
2022-12-11T23:21:40.013Z,-1.43
2022-12-11T23:24:42.857Z,-1.42
2022-12-11T23:27:48.393Z,-1.41
2022-12-11T23:30:51.217Z,-1.55
2022-12-11T23:33:54.435Z,-1.52
2022-12-11T23:36:57.120Z,-1.56
2022-12-11T23:39:59.803Z,-1.54
2022-12-11T23:43:02.584Z,-1.59
2022-12-11T23:46:08.260Z,-1.51
2022-12-11T23:49:11.390Z,-1.60
2022-12-11T23:52:14.142Z,-1.60
2022-12-11T23:55:17.011Z,-1.60
2022-12-11T23:58:19.844Z,-1.58
